sensor_id;sensor_type;location;lat;lon;timestamp;P1;durP1;ratioP1;P2;durP2;ratioP2
53203;SDS011;39086;54.424;18.456;2023-09-19T00:00:00;12.60;;;9.13;;
53203;SDS011;39086;54.424;18.456;2023-09-19T00:01:04;9.90;;;8.60;;
53203;SDS011;39086;54.424;18.456;2023-09-19T00:02:09;11.57;;;8.87;;
53203;SDS011;39086;54.424;18.456;2023-09-19T00:03:12;8.10;;;7.40;;
53203;SDS011;39086;54.424;18.456;2023-09-19T00:04:16;12.93;;;8.47;;
53203;SDS011;39086;54.424;18.456;2023-09-19T00:05:24;8.73;;;7.83;;
53203;SDS011;39086;54.424;18.456;2023-09-19T00:06:30;11.83;;;8.77;;
53203;SDS011;39086;54.424;18.456;2023-09-19T00:07:33;10.20;;;9.03;;
53203;SDS011;39086;54.424;18.456;2023-09-19T00:08:38;9.20;;;8.40;;
53203;SDS011;39086;54.424;18.456;2023-09-19T00:09:42;9.17;;;7.37;;
53203;SDS011;39086;54.424;18.456;2023-09-19T00:10:45;11.03;;;8.47;;
53203;SDS011;39086;54.424;18.456;2023-09-19T00:11:49;9.50;;;8.57;;
53203;SDS011;39086;54.424;18.456;2023-09-19T00:12:52;10.43;;;8.20;;
53203;SDS011;39086;54.424;18.456;2023-09-19T00:13:58;10.17;;;8.97;;
53203;SDS011;39086;54.424;18.456;2023-09-19T00:15:01;9.20;;;8.10;;
53203;SDS011;39086;54.424;18.456;2023-09-19T00:16:08;10.07;;;8.10;;
53203;SDS011;39086;54.424;18.456;2023-09-19T00:17:12;8.47;;;7.73;;
53203;SDS011;39086;54.424;18.456;2023-09-19T00:18:17;11.90;;;8.87;;
53203;SDS011;39086;54.424;18.456;2023-09-19T00:19:24;37.73;;;9.47;;
53203;SDS011;39086;54.424;18.456;2023-09-19T00:20:27;10.77;;;8.67;;
53203;SDS011;39086;54.424;18.456;2023-09-19T00:21:31;10.80;;;7.83;;
53203;SDS011;39086;54.424;18.456;2023-09-19T00:22:34;10.93;;;9.07;;
53203;SDS011;39086;54.424;18.456;2023-09-19T00:23:38;8.17;;;7.47;;
53203;SDS011;39086;54.424;18.456;2023-09-19T00:24:42;10.03;;;9.13;;
53203;SDS011;39086;54.424;18.456;2023-09-19T00:25:44;10.13;;;8.70;;
53203;SDS011;39086;54.424;18.456;2023-09-19T00:26:47;12.77;;;9.53;;
53203;SDS011;39086;54.424;18.456;2023-09-19T00:27:50;11.87;;;8.63;;
53203;SDS011;39086;54.424;18.456;2023-09-19T00:28:53;10.20;;;8.40;;
53203;SDS011;39086;54.424;18.456;2023-09-19T00:29:57;12.13;;;8.90;;
53203;SDS011;39086;54.424;18.456;2023-09-19T00:30:59;8.90;;;8.00;;
53203;SDS011;39086;54.424;18.456;2023-09-19T00:32:03;9.73;;;8.93;;
53203;SDS011;39086;54.424;18.456;2023-09-19T00:33:06;9.93;;;8.67;;
53203;SDS011;39086;54.424;18.456;2023-09-19T00:34:12;10.87;;;9.53;;
53203;SDS011;39086;54.424;18.456;2023-09-19T00:35:16;11.00;;;8.67;;
53203;SDS011;39086;54.424;18.456;2023-09-19T00:36:20;10.83;;;9.83;;
53203;SDS011;39086;54.424;18.456;2023-09-19T00:37:22;15.43;;;9.37;;
53203;SDS011;39086;54.424;18.456;2023-09-19T00:38:25;10.17;;;9.27;;
53203;SDS011;39086;54.424;18.456;2023-09-19T00:39:29;11.80;;;9.27;;
53203;SDS011;39086;54.424;18.456;2023-09-19T00:40:32;13.77;;;8.70;;
53203;SDS011;39086;54.424;18.456;2023-09-19T00:41:36;10.67;;;8.00;;
53203;SDS011;39086;54.424;18.456;2023-09-19T00:42:39;9.13;;;8.40;;
53203;SDS011;39086;54.424;18.456;2023-09-19T00:43:42;9.93;;;8.97;;
53203;SDS011;39086;54.424;18.456;2023-09-19T00:44:45;10.23;;;8.63;;
53203;SDS011;39086;54.424;18.456;2023-09-19T00:45:50;10.63;;;8.67;;
53203;SDS011;39086;54.424;18.456;2023-09-19T00:46:53;10.27;;;9.27;;
53203;SDS011;39086;54.424;18.456;2023-09-19T00:47:56;10.13;;;8.47;;
53203;SDS011;39086;54.424;18.456;2023-09-19T00:48:59;9.70;;;8.80;;
53203;SDS011;39086;54.424;18.456;2023-09-19T00:50:03;11.73;;;9.17;;
53203;SDS011;39086;54.424;18.456;2023-09-19T00:51:08;11.90;;;8.40;;
53203;SDS011;39086;54.424;18.456;2023-09-19T00:52:12;9.23;;;8.43;;
53203;SDS011;39086;54.424;18.456;2023-09-19T00:53:15;10.00;;;9.03;;
53203;SDS011;39086;54.424;18.456;2023-09-19T00:54:21;12.13;;;9.07;;
53203;SDS011;39086;54.424;18.456;2023-09-19T00:55:24;10.07;;;9.07;;
53203;SDS011;39086;54.424;18.456;2023-09-19T00:56:27;11.57;;;9.03;;
53203;SDS011;39086;54.424;18.456;2023-09-19T00:57:30;11.23;;;9.40;;
53203;SDS011;39086;54.424;18.456;2023-09-19T00:58:34;10.07;;;9.07;;
53203;SDS011;39086;54.424;18.456;2023-09-19T00:59:38;8.90;;;8.10;;
53203;SDS011;39086;54.424;18.456;2023-09-19T01:00:42;16.43;;;9.53;;
53203;SDS011;39086;54.424;18.456;2023-09-19T01:01:47;12.97;;;8.83;;
53203;SDS011;39086;54.424;18.456;2023-09-19T01:02:54;9.60;;;8.60;;
53203;SDS011;39086;54.424;18.456;2023-09-19T01:03:57;12.30;;;8.97;;
53203;SDS011;39086;54.424;18.456;2023-09-19T01:05:00;11.07;;;9.00;;
53203;SDS011;39086;54.424;18.456;2023-09-19T01:06:05;9.90;;;9.00;;
53203;SDS011;39086;54.424;18.456;2023-09-19T01:07:09;11.50;;;9.47;;
53203;SDS011;39086;54.424;18.456;2023-09-19T01:08:12;14.13;;;9.87;;
53203;SDS011;39086;54.424;18.456;2023-09-19T01:09:15;13.40;;;9.87;;
53203;SDS011;39086;54.424;18.456;2023-09-19T01:10:18;10.43;;;9.43;;
53203;SDS011;39086;54.424;18.456;2023-09-19T01:11:26;10.07;;;8.90;;
53203;SDS011;39086;54.424;18.456;2023-09-19T01:12:33;24.73;;;8.53;;
53203;SDS011;39086;54.424;18.456;2023-09-19T01:13:46;10.73;;;8.77;;
53203;SDS011;39086;54.424;18.456;2023-09-19T01:14:51;11.27;;;10.13;;
53203;SDS011;39086;54.424;18.456;2023-09-19T01:16:00;9.83;;;8.93;;
53203;SDS011;39086;54.424;18.456;2023-09-19T01:17:08;10.37;;;9.47;;
53203;SDS011;39086;54.424;18.456;2023-09-19T01:18:16;10.20;;;9.13;;
53203;SDS011;39086;54.424;18.456;2023-09-19T01:19:28;13.07;;;8.60;;
53203;SDS011;39086;54.424;18.456;2023-09-19T01:20:37;13.50;;;10.90;;
53203;SDS011;39086;54.424;18.456;2023-09-19T01:21:44;13.03;;;9.97;;
53203;SDS011;39086;54.424;18.456;2023-09-19T01:22:50;11.50;;;9.57;;
53203;SDS011;39086;54.424;18.456;2023-09-19T01:26:48;10.97;;;10.00;;
53203;SDS011;39086;54.424;18.456;2023-09-19T01:28:01;10.40;;;9.40;;
53203;SDS011;39086;54.424;18.456;2023-09-19T01:29:19;9.77;;;8.97;;
53203;SDS011;39086;54.424;18.456;2023-09-19T01:30:39;11.23;;;9.37;;
53203;SDS011;39086;54.424;18.456;2023-09-19T01:31:44;11.57;;;10.53;;
53203;SDS011;39086;54.424;18.456;2023-09-19T01:32:47;10.30;;;9.30;;
53203;SDS011;39086;54.424;18.456;2023-09-19T01:33:57;10.17;;;9.23;;
53203;SDS011;39086;54.424;18.456;2023-09-19T01:35:01;15.80;;;11.00;;
53203;SDS011;39086;54.424;18.456;2023-09-19T01:36:06;12.47;;;10.20;;
53203;SDS011;39086;54.424;18.456;2023-09-19T01:37:10;11.80;;;10.57;;
53203;SDS011;39086;54.424;18.456;2023-09-19T01:38:13;11.10;;;9.97;;
53203;SDS011;39086;54.424;18.456;2023-09-19T01:39:16;12.03;;;9.63;;
53203;SDS011;39086;54.424;18.456;2023-09-19T01:40:20;10.40;;;9.37;;
53203;SDS011;39086;54.424;18.456;2023-09-19T01:41:26;12.27;;;10.93;;
53203;SDS011;39086;54.424;18.456;2023-09-19T01:42:35;12.20;;;10.83;;
53203;SDS011;39086;54.424;18.456;2023-09-19T01:43:41;10.10;;;9.07;;
53203;SDS011;39086;54.424;18.456;2023-09-19T01:44:52;11.37;;;9.83;;
53203;SDS011;39086;54.424;18.456;2023-09-19T01:45:59;11.20;;;10.07;;
53203;SDS011;39086;54.424;18.456;2023-09-19T01:47:08;10.30;;;9.23;;
53203;SDS011;39086;54.424;18.456;2023-09-19T01:48:19;12.30;;;9.77;;
53203;SDS011;39086;54.424;18.456;2023-09-19T01:49:24;12.43;;;10.23;;
53203;SDS011;39086;54.424;18.456;2023-09-19T01:50:29;11.63;;;9.90;;
53203;SDS011;39086;54.424;18.456;2023-09-19T01:51:43;10.50;;;9.47;;
53203;SDS011;39086;54.424;18.456;2023-09-19T01:52:51;9.77;;;8.97;;
53203;SDS011;39086;54.424;18.456;2023-09-19T01:53:58;11.83;;;10.63;;
53203;SDS011;39086;54.424;18.456;2023-09-19T01:55:05;10.33;;;9.30;;
53203;SDS011;39086;54.424;18.456;2023-09-19T01:56:09;11.40;;;9.20;;
53203;SDS011;39086;54.424;18.456;2023-09-19T01:57:16;10.57;;;9.47;;
53203;SDS011;39086;54.424;18.456;2023-09-19T01:58:20;10.90;;;9.30;;
53203;SDS011;39086;54.424;18.456;2023-09-19T01:59:24;10.00;;;9.10;;
53203;SDS011;39086;54.424;18.456;2023-09-19T02:00:28;10.67;;;9.57;;
53203;SDS011;39086;54.424;18.456;2023-09-19T02:01:33;9.47;;;8.60;;
53203;SDS011;39086;54.424;18.456;2023-09-19T02:02:39;13.63;;;9.57;;
53203;SDS011;39086;54.424;18.456;2023-09-19T02:03:43;10.30;;;9.10;;
53203;SDS011;39086;54.424;18.456;2023-09-19T02:04:46;9.87;;;9.00;;
53203;SDS011;39086;54.424;18.456;2023-09-19T02:05:51;8.80;;;8.10;;
53203;SDS011;39086;54.424;18.456;2023-09-19T02:06:55;12.00;;;9.73;;
53203;SDS011;39086;54.424;18.456;2023-09-19T02:07:59;9.17;;;8.27;;
53203;SDS011;39086;54.424;18.456;2023-09-19T02:09:02;9.27;;;8.40;;
53203;SDS011;39086;54.424;18.456;2023-09-19T02:10:06;10.40;;;9.00;;
53203;SDS011;39086;54.424;18.456;2023-09-19T02:11:11;8.93;;;8.07;;
53203;SDS011;39086;54.424;18.456;2023-09-19T02:12:14;8.93;;;8.13;;
53203;SDS011;39086;54.424;18.456;2023-09-19T02:13:17;9.70;;;8.50;;
53203;SDS011;39086;54.424;18.456;2023-09-19T02:14:21;11.23;;;7.90;;
53203;SDS011;39086;54.424;18.456;2023-09-19T02:15:23;8.50;;;7.73;;
53203;SDS011;39086;54.424;18.456;2023-09-19T02:16:27;8.67;;;7.63;;
53203;SDS011;39086;54.424;18.456;2023-09-19T02:17:31;7.50;;;6.90;;
53203;SDS011;39086;54.424;18.456;2023-09-19T02:18:35;7.53;;;6.93;;
53203;SDS011;39086;54.424;18.456;2023-09-19T02:19:38;11.70;;;7.17;;
53203;SDS011;39086;54.424;18.456;2023-09-19T02:20:42;9.77;;;7.77;;
53203;SDS011;39086;54.424;18.456;2023-09-19T02:21:44;7.57;;;6.93;;
53203;SDS011;39086;54.424;18.456;2023-09-19T02:22:50;7.80;;;7.10;;
53203;SDS011;39086;54.424;18.456;2023-09-19T02:23:53;7.70;;;6.90;;
53203;SDS011;39086;54.424;18.456;2023-09-19T02:24:56;8.13;;;7.33;;
53203;SDS011;39086;54.424;18.456;2023-09-19T02:26:02;8.57;;;7.67;;
53203;SDS011;39086;54.424;18.456;2023-09-19T02:27:06;7.30;;;6.60;;
53203;SDS011;39086;54.424;18.456;2023-09-19T02:28:09;7.53;;;6.83;;
53203;SDS011;39086;54.424;18.456;2023-09-19T02:29:12;7.87;;;7.07;;
53203;SDS011;39086;54.424;18.456;2023-09-19T02:30:15;8.80;;;6.80;;
53203;SDS011;39086;54.424;18.456;2023-09-19T02:31:21;7.93;;;6.40;;
53203;SDS011;39086;54.424;18.456;2023-09-19T02:32:24;7.13;;;6.43;;
53203;SDS011;39086;54.424;18.456;2023-09-19T02:33:29;6.40;;;5.90;;
53203;SDS011;39086;54.424;18.456;2023-09-19T02:34:34;6.77;;;5.13;;
53203;SDS011;39086;54.424;18.456;2023-09-19T02:35:38;5.17;;;4.77;;
53203;SDS011;39086;54.424;18.456;2023-09-19T02:36:40;8.27;;;3.77;;
53203;SDS011;39086;54.424;18.456;2023-09-19T02:37:45;6.03;;;4.93;;
53203;SDS011;39086;54.424;18.456;2023-09-19T02:38:48;4.37;;;4.00;;
53203;SDS011;39086;54.424;18.456;2023-09-19T02:39:51;5.13;;;4.70;;
53203;SDS011;39086;54.424;18.456;2023-09-19T02:40:53;4.30;;;4.10;;
53203;SDS011;39086;54.424;18.456;2023-09-19T02:41:57;5.97;;;4.17;;
53203;SDS011;39086;54.424;18.456;2023-09-19T02:42:59;7.73;;;4.80;;
53203;SDS011;39086;54.424;18.456;2023-09-19T02:44:03;5.60;;;5.00;;
53203;SDS011;39086;54.424;18.456;2023-09-19T02:45:09;4.43;;;4.03;;
53203;SDS011;39086;54.424;18.456;2023-09-19T02:46:12;4.67;;;4.27;;
53203;SDS011;39086;54.424;18.456;2023-09-19T02:47:15;4.33;;;3.93;;
53203;SDS011;39086;54.424;18.456;2023-09-19T02:48:18;5.20;;;4.80;;
53203;SDS011;39086;54.424;18.456;2023-09-19T02:49:22;3.30;;;3.10;;
53203;SDS011;39086;54.424;18.456;2023-09-19T02:50:26;9.30;;;4.37;;
53203;SDS011;39086;54.424;18.456;2023-09-19T02:51:28;3.73;;;3.43;;
53203;SDS011;39086;54.424;18.456;2023-09-19T02:52:32;2.63;;;2.43;;
53203;SDS011;39086;54.424;18.456;2023-09-19T02:53:35;3.57;;;2.93;;
53203;SDS011;39086;54.424;18.456;2023-09-19T02:54:39;2.77;;;2.57;;
53203;SDS011;39086;54.424;18.456;2023-09-19T02:55:43;2.73;;;2.53;;
53203;SDS011;39086;54.424;18.456;2023-09-19T02:56:47;2.43;;;2.33;;
53203;SDS011;39086;54.424;18.456;2023-09-19T02:57:50;2.60;;;2.40;;
53203;SDS011;39086;54.424;18.456;2023-09-19T02:58:53;2.63;;;2.47;;
53203;SDS011;39086;54.424;18.456;2023-09-19T02:59:56;3.53;;;2.90;;
53203;SDS011;39086;54.424;18.456;2023-09-19T03:01:00;3.37;;;3.17;;
53203;SDS011;39086;54.424;18.456;2023-09-19T03:02:09;2.60;;;2.50;;
53203;SDS011;39086;54.424;18.456;2023-09-19T03:03:13;4.10;;;2.73;;
53203;SDS011;39086;54.424;18.456;2023-09-19T03:04:16;20.83;;;2.30;;
53203;SDS011;39086;54.424;18.456;2023-09-19T03:05:22;2.47;;;2.27;;
53203;SDS011;39086;54.424;18.456;2023-09-19T03:06:26;1.60;;;1.60;;
53203;SDS011;39086;54.424;18.456;2023-09-19T03:07:32;3.13;;;2.83;;
53203;SDS011;39086;54.424;18.456;2023-09-19T03:08:34;2.37;;;2.27;;
53203;SDS011;39086;54.424;18.456;2023-09-19T03:09:39;1.80;;;1.70;;
53203;SDS011;39086;54.424;18.456;2023-09-19T03:10:41;2.20;;;2.10;;
53203;SDS011;39086;54.424;18.456;2023-09-19T03:11:45;2.00;;;1.83;;
53203;SDS011;39086;54.424;18.456;2023-09-19T03:12:49;2.43;;;2.23;;
53203;SDS011;39086;54.424;18.456;2023-09-19T03:13:53;2.97;;;2.77;;
53203;SDS011;39086;54.424;18.456;2023-09-19T03:14:55;2.60;;;2.23;;
53203;SDS011;39086;54.424;18.456;2023-09-19T03:15:58;2.30;;;2.20;;
53203;SDS011;39086;54.424;18.456;2023-09-19T03:17:01;3.40;;;2.53;;
53203;SDS011;39086;54.424;18.456;2023-09-19T03:18:06;3.00;;;2.47;;
53203;SDS011;39086;54.424;18.456;2023-09-19T03:19:08;4.80;;;2.73;;
53203;SDS011;39086;54.424;18.456;2023-09-19T03:20:13;2.97;;;2.20;;
53203;SDS011;39086;54.424;18.456;2023-09-19T03:21:20;2.00;;;1.90;;
53203;SDS011;39086;54.424;18.456;2023-09-19T03:22:23;4.90;;;2.40;;
53203;SDS011;39086;54.424;18.456;2023-09-19T03:23:26;3.50;;;2.30;;
53203;SDS011;39086;54.424;18.456;2023-09-19T03:24:29;4.50;;;2.67;;
53203;SDS011;39086;54.424;18.456;2023-09-19T03:25:33;2.63;;;2.43;;
53203;SDS011;39086;54.424;18.456;2023-09-19T03:26:36;3.80;;;2.00;;
53203;SDS011;39086;54.424;18.456;2023-09-19T03:27:39;1.80;;;1.70;;
53203;SDS011;39086;54.424;18.456;2023-09-19T03:28:42;1.33;;;1.33;;
53203;SDS011;39086;54.424;18.456;2023-09-19T03:29:45;2.30;;;2.20;;
53203;SDS011;39086;54.424;18.456;2023-09-19T03:30:56;2.40;;;2.07;;
53203;SDS011;39086;54.424;18.456;2023-09-19T03:32:00;9.60;;;2.50;;
53203;SDS011;39086;54.424;18.456;2023-09-19T03:33:03;1.97;;;1.80;;
53203;SDS011;39086;54.424;18.456;2023-09-19T03:34:07;1.93;;;1.83;;
53203;SDS011;39086;54.424;18.456;2023-09-19T03:35:10;2.17;;;2.07;;
53203;SDS011;39086;54.424;18.456;2023-09-19T03:36:15;2.57;;;2.10;;
53203;SDS011;39086;54.424;18.456;2023-09-19T03:37:20;2.07;;;1.87;;
53203;SDS011;39086;54.424;18.456;2023-09-19T03:38:22;2.70;;;1.87;;
53203;SDS011;39086;54.424;18.456;2023-09-19T03:39:26;2.47;;;2.27;;
53203;SDS011;39086;54.424;18.456;2023-09-19T03:40:28;3.07;;;1.70;;
53203;SDS011;39086;54.424;18.456;2023-09-19T03:41:32;2.20;;;1.40;;
53203;SDS011;39086;54.424;18.456;2023-09-19T03:42:34;1.97;;;1.87;;
53203;SDS011;39086;54.424;18.456;2023-09-19T03:43:37;1.87;;;1.77;;
53203;SDS011;39086;54.424;18.456;2023-09-19T03:44:41;2.57;;;2.43;;
53203;SDS011;39086;54.424;18.456;2023-09-19T03:45:44;2.87;;;1.63;;
53203;SDS011;39086;54.424;18.456;2023-09-19T03:46:47;1.70;;;1.60;;
53203;SDS011;39086;54.424;18.456;2023-09-19T03:47:51;6.33;;;1.77;;
53203;SDS011;39086;54.424;18.456;2023-09-19T03:48:54;1.93;;;1.83;;
53203;SDS011;39086;54.424;18.456;2023-09-19T03:49:57;2.90;;;1.90;;
53203;SDS011;39086;54.424;18.456;2023-09-19T03:50:59;7.97;;;2.00;;
53203;SDS011;39086;54.424;18.456;2023-09-19T03:52:03;2.13;;;1.67;;
53203;SDS011;39086;54.424;18.456;2023-09-19T03:53:07;4.37;;;2.30;;
53203;SDS011;39086;54.424;18.456;2023-09-19T03:54:11;1.97;;;1.87;;
53203;SDS011;39086;54.424;18.456;2023-09-19T03:55:14;2.73;;;2.53;;
53203;SDS011;39086;54.424;18.456;2023-09-19T03:56:17;3.27;;;2.37;;
53203;SDS011;39086;54.424;18.456;2023-09-19T03:57:19;2.40;;;2.07;;
53203;SDS011;39086;54.424;18.456;2023-09-19T03:58:22;2.53;;;2.00;;
53203;SDS011;39086;54.424;18.456;2023-09-19T03:59:26;3.87;;;2.13;;
53203;SDS011;39086;54.424;18.456;2023-09-19T04:00:30;1.90;;;1.80;;
53203;SDS011;39086;54.424;18.456;2023-09-19T04:01:32;2.40;;;2.20;;
53203;SDS011;39086;54.424;18.456;2023-09-19T04:02:36;2.50;;;1.63;;
53203;SDS011;39086;54.424;18.456;2023-09-19T04:03:39;2.00;;;1.90;;
53203;SDS011;39086;54.424;18.456;2023-09-19T04:04:48;1.97;;;1.77;;
53203;SDS011;39086;54.424;18.456;2023-09-19T04:05:51;2.43;;;2.23;;
53203;SDS011;39086;54.424;18.456;2023-09-19T04:06:55;1.93;;;1.83;;
53203;SDS011;39086;54.424;18.456;2023-09-19T04:07:57;1.50;;;1.50;;
53203;SDS011;39086;54.424;18.456;2023-09-19T04:09:02;2.20;;;2.10;;
53203;SDS011;39086;54.424;18.456;2023-09-19T04:10:05;2.20;;;2.00;;
53203;SDS011;39086;54.424;18.456;2023-09-19T04:11:10;1.50;;;1.43;;
53203;SDS011;39086;54.424;18.456;2023-09-19T04:12:12;2.13;;;1.97;;
53203;SDS011;39086;54.424;18.456;2023-09-19T04:13:18;3.90;;;1.90;;
53203;SDS011;39086;54.424;18.456;2023-09-19T04:14:20;2.30;;;1.77;;
53203;SDS011;39086;54.424;18.456;2023-09-19T04:15:24;2.10;;;1.73;;
53203;SDS011;39086;54.424;18.456;2023-09-19T04:16:26;2.33;;;2.00;;
53203;SDS011;39086;54.424;18.456;2023-09-19T04:17:29;2.97;;;2.17;;
53203;SDS011;39086;54.424;18.456;2023-09-19T04:18:34;3.60;;;1.93;;
53203;SDS011;39086;54.424;18.456;2023-09-19T04:19:39;2.07;;;1.97;;
53203;SDS011;39086;54.424;18.456;2023-09-19T04:20:47;1.57;;;1.53;;
53203;SDS011;39086;54.424;18.456;2023-09-19T04:21:50;2.00;;;1.90;;
53203;SDS011;39086;54.424;18.456;2023-09-19T04:22:53;1.63;;;1.53;;
53203;SDS011;39086;54.424;18.456;2023-09-19T04:23:56;2.27;;;1.73;;
53203;SDS011;39086;54.424;18.456;2023-09-19T04:25:00;4.87;;;2.17;;
53203;SDS011;39086;54.424;18.456;2023-09-19T04:26:04;2.07;;;1.90;;
53203;SDS011;39086;54.424;18.456;2023-09-19T04:27:07;1.33;;;1.33;;
53203;SDS011;39086;54.424;18.456;2023-09-19T04:28:11;2.03;;;1.93;;
53203;SDS011;39086;54.424;18.456;2023-09-19T04:29:14;3.47;;;2.43;;
53203;SDS011;39086;54.424;18.456;2023-09-19T04:30:17;2.53;;;1.70;;
53203;SDS011;39086;54.424;18.456;2023-09-19T04:31:19;1.50;;;1.40;;
53203;SDS011;39086;54.424;18.456;2023-09-19T04:32:23;2.03;;;1.93;;
53203;SDS011;39086;54.424;18.456;2023-09-19T04:33:26;1.60;;;1.50;;
53203;SDS011;39086;54.424;18.456;2023-09-19T04:34:29;1.83;;;1.73;;
53203;SDS011;39086;54.424;18.456;2023-09-19T04:35:32;1.63;;;1.53;;
53203;SDS011;39086;54.424;18.456;2023-09-19T04:36:35;2.00;;;1.90;;
53203;SDS011;39086;54.424;18.456;2023-09-19T04:37:39;1.40;;;1.40;;
53203;SDS011;39086;54.424;18.456;2023-09-19T04:38:43;2.10;;;2.00;;
53203;SDS011;39086;54.424;18.456;2023-09-19T04:39:47;2.27;;;2.17;;
53203;SDS011;39086;54.424;18.456;2023-09-19T04:40:51;2.90;;;1.70;;
53203;SDS011;39086;54.424;18.456;2023-09-19T04:42:00;3.03;;;2.33;;
53203;SDS011;39086;54.424;18.456;2023-09-19T04:43:02;1.97;;;1.83;;
53203;SDS011;39086;54.424;18.456;2023-09-19T04:44:06;1.90;;;1.80;;
53203;SDS011;39086;54.424;18.456;2023-09-19T04:45:09;2.03;;;1.93;;
53203;SDS011;39086;54.424;18.456;2023-09-19T04:46:12;1.53;;;1.43;;
53203;SDS011;39086;54.424;18.456;2023-09-19T04:47:15;1.77;;;1.67;;
53203;SDS011;39086;54.424;18.456;2023-09-19T04:48:18;2.30;;;2.13;;
53203;SDS011;39086;54.424;18.456;2023-09-19T04:49:21;2.17;;;2.07;;
53203;SDS011;39086;54.424;18.456;2023-09-19T04:50:25;2.30;;;2.10;;
53203;SDS011;39086;54.424;18.456;2023-09-19T04:51:29;1.73;;;1.63;;
53203;SDS011;39086;54.424;18.456;2023-09-19T04:52:35;1.80;;;1.70;;
53203;SDS011;39086;54.424;18.456;2023-09-19T04:53:41;2.43;;;2.13;;
53203;SDS011;39086;54.424;18.456;2023-09-19T04:54:45;2.33;;;2.13;;
53203;SDS011;39086;54.424;18.456;2023-09-19T04:55:53;2.30;;;2.20;;
53203;SDS011;39086;54.424;18.456;2023-09-19T04:56:57;4.73;;;2.03;;
53203;SDS011;39086;54.424;18.456;2023-09-19T04:57:59;4.43;;;2.13;;
53203;SDS011;39086;54.424;18.456;2023-09-19T04:59:03;16.40;;;2.93;;
53203;SDS011;39086;54.424;18.456;2023-09-19T05:00:06;2.10;;;2.00;;
53203;SDS011;39086;54.424;18.456;2023-09-19T05:01:13;2.27;;;2.07;;
53203;SDS011;39086;54.424;18.456;2023-09-19T05:02:17;1.50;;;1.50;;
53203;SDS011;39086;54.424;18.456;2023-09-19T05:03:20;2.83;;;2.10;;
53203;SDS011;39086;54.424;18.456;2023-09-19T05:04:24;2.40;;;2.20;;
53203;SDS011;39086;54.424;18.456;2023-09-19T05:05:26;3.07;;;2.87;;
53203;SDS011;39086;54.424;18.456;2023-09-19T05:06:30;2.27;;;2.07;;
53203;SDS011;39086;54.424;18.456;2023-09-19T05:07:32;2.17;;;1.97;;
53203;SDS011;39086;54.424;18.456;2023-09-19T05:08:36;3.77;;;2.57;;
53203;SDS011;39086;54.424;18.456;2023-09-19T05:09:38;2.73;;;2.53;;
53203;SDS011;39086;54.424;18.456;2023-09-19T05:10:43;14.87;;;2.53;;
53203;SDS011;39086;54.424;18.456;2023-09-19T05:11:47;2.83;;;2.63;;
53203;SDS011;39086;54.424;18.456;2023-09-19T05:12:53;2.83;;;2.60;;
53203;SDS011;39086;54.424;18.456;2023-09-19T05:13:55;2.13;;;1.93;;
53203;SDS011;39086;54.424;18.456;2023-09-19T05:15:03;2.90;;;2.03;;
53203;SDS011;39086;54.424;18.456;2023-09-19T05:16:06;3.30;;;2.40;;
53203;SDS011;39086;54.424;18.456;2023-09-19T05:17:11;2.70;;;2.50;;
53203;SDS011;39086;54.424;18.456;2023-09-19T05:18:13;6.43;;;2.23;;
53203;SDS011;39086;54.424;18.456;2023-09-19T05:19:17;2.87;;;2.67;;
53203;SDS011;39086;54.424;18.456;2023-09-19T05:20:19;2.63;;;2.10;;
53203;SDS011;39086;54.424;18.456;2023-09-19T05:21:31;2.90;;;2.70;;
53203;SDS011;39086;54.424;18.456;2023-09-19T05:22:34;5.97;;;2.83;;
53203;SDS011;39086;54.424;18.456;2023-09-19T05:23:37;10.03;;;2.17;;
53203;SDS011;39086;54.424;18.456;2023-09-19T05:24:40;2.80;;;2.57;;
53203;SDS011;39086;54.424;18.456;2023-09-19T05:25:43;1.93;;;1.83;;
53203;SDS011;39086;54.424;18.456;2023-09-19T05:26:48;2.50;;;2.27;;
53203;SDS011;39086;54.424;18.456;2023-09-19T05:27:52;2.83;;;2.30;;
53203;SDS011;39086;54.424;18.456;2023-09-19T05:28:56;4.57;;;2.40;;
53203;SDS011;39086;54.424;18.456;2023-09-19T05:29:58;2.67;;;1.87;;
53203;SDS011;39086;54.424;18.456;2023-09-19T05:31:01;3.13;;;2.40;;
53203;SDS011;39086;54.424;18.456;2023-09-19T05:32:04;1.87;;;1.77;;
53203;SDS011;39086;54.424;18.456;2023-09-19T05:33:08;11.67;;;2.10;;
53203;SDS011;39086;54.424;18.456;2023-09-19T05:34:10;1.60;;;1.50;;
53203;SDS011;39086;54.424;18.456;2023-09-19T05:35:14;2.23;;;2.07;;
53203;SDS011;39086;54.424;18.456;2023-09-19T05:36:17;2.27;;;2.13;;
53203;SDS011;39086;54.424;18.456;2023-09-19T05:37:20;2.17;;;2.03;;
53203;SDS011;39086;54.424;18.456;2023-09-19T05:38:22;1.60;;;1.50;;
53203;SDS011;39086;54.424;18.456;2023-09-19T05:39:27;1.70;;;1.60;;
53203;SDS011;39086;54.424;18.456;2023-09-19T05:40:29;2.10;;;1.90;;
53203;SDS011;39086;54.424;18.456;2023-09-19T05:41:33;2.07;;;1.87;;
53203;SDS011;39086;54.424;18.456;2023-09-19T05:42:39;1.93;;;1.83;;
53203;SDS011;39086;54.424;18.456;2023-09-19T05:43:42;2.00;;;1.90;;
53203;SDS011;39086;54.424;18.456;2023-09-19T05:44:45;5.23;;;2.37;;
53203;SDS011;39086;54.424;18.456;2023-09-19T05:45:48;2.57;;;2.37;;
53203;SDS011;39086;54.424;18.456;2023-09-19T05:46:53;2.33;;;2.20;;
53203;SDS011;39086;54.424;18.456;2023-09-19T05:48:05;1.30;;;1.30;;
53203;SDS011;39086;54.424;18.456;2023-09-19T05:49:09;2.37;;;2.17;;
53203;SDS011;39086;54.424;18.456;2023-09-19T05:50:12;2.13;;;1.97;;
53203;SDS011;39086;54.424;18.456;2023-09-19T05:51:16;5.70;;;2.17;;
53203;SDS011;39086;54.424;18.456;2023-09-19T05:52:20;1.67;;;1.57;;
53203;SDS011;39086;54.424;18.456;2023-09-19T05:53:23;2.40;;;2.20;;
53203;SDS011;39086;54.424;18.456;2023-09-19T05:54:27;1.50;;;1.40;;
53203;SDS011;39086;54.424;18.456;2023-09-19T05:55:29;2.10;;;1.90;;
53203;SDS011;39086;54.424;18.456;2023-09-19T05:56:33;2.47;;;1.90;;
53203;SDS011;39086;54.424;18.456;2023-09-19T05:57:35;3.50;;;2.50;;
53203;SDS011;39086;54.424;18.456;2023-09-19T05:58:41;2.47;;;2.27;;
53203;SDS011;39086;54.424;18.456;2023-09-19T05:59:45;1.90;;;1.80;;
53203;SDS011;39086;54.424;18.456;2023-09-19T06:00:50;1.57;;;1.47;;
53203;SDS011;39086;54.424;18.456;2023-09-19T06:01:53;11.37;;;2.43;;
53203;SDS011;39086;54.424;18.456;2023-09-19T06:02:57;4.30;;;2.30;;
53203;SDS011;39086;54.424;18.456;2023-09-19T06:04:00;2.20;;;2.00;;
53203;SDS011;39086;54.424;18.456;2023-09-19T06:05:04;2.23;;;2.03;;
53203;SDS011;39086;54.424;18.456;2023-09-19T06:06:07;3.67;;;2.00;;
53203;SDS011;39086;54.424;18.456;2023-09-19T06:07:10;2.30;;;2.20;;
53203;SDS011;39086;54.424;18.456;2023-09-19T06:08:13;3.73;;;2.33;;
53203;SDS011;39086;54.424;18.456;2023-09-19T06:09:16;2.20;;;2.07;;
53203;SDS011;39086;54.424;18.456;2023-09-19T06:10:23;2.13;;;1.97;;
53203;SDS011;39086;54.424;18.456;2023-09-19T06:11:26;4.33;;;2.20;;
53203;SDS011;39086;54.424;18.456;2023-09-19T06:12:33;2.43;;;2.23;;
53203;SDS011;39086;54.424;18.456;2023-09-19T06:13:36;1.93;;;1.83;;
53203;SDS011;39086;54.424;18.456;2023-09-19T06:14:43;4.90;;;2.50;;
53203;SDS011;39086;54.424;18.456;2023-09-19T06:15:47;2.63;;;2.43;;
53203;SDS011;39086;54.424;18.456;2023-09-19T06:16:51;2.20;;;2.00;;
53203;SDS011;39086;54.424;18.456;2023-09-19T06:17:55;5.93;;;3.07;;
53203;SDS011;39086;54.424;18.456;2023-09-19T06:18:59;2.90;;;2.70;;
53203;SDS011;39086;54.424;18.456;2023-09-19T06:20:03;2.87;;;2.67;;
53203;SDS011;39086;54.424;18.456;2023-09-19T06:21:06;3.13;;;2.57;;
53203;SDS011;39086;54.424;18.456;2023-09-19T06:22:10;2.93;;;2.73;;